createdAt,value
2019-01-25T00:00:06.281Z,1020.09
2019-01-25T00:01:06.271Z,1020.08
2019-01-25T00:02:06.286Z,1020.07
2019-01-25T00:03:10.233Z,1020.15
2019-01-25T00:04:06.311Z,1020.14
2019-01-25T00:05:06.326Z,1020.11
2019-01-25T00:06:06.347Z,1020.14
2019-01-25T00:07:06.353Z,1020.16
2019-01-25T00:08:06.372Z,1020.17
2019-01-25T00:09:06.385Z,1020.16
2019-01-25T00:10:06.400Z,1020.20
2019-01-25T00:11:06.404Z,1020.15
2019-01-25T00:12:06.417Z,1020.18
2019-01-25T00:13:06.430Z,1020.19
2019-01-25T00:14:06.442Z,1020.21
2019-01-25T00:15:06.457Z,1020.24
2019-01-25T00:16:06.471Z,1020.25
2019-01-25T00:17:06.506Z,1020.29
2019-01-25T00:18:06.497Z,1020.27
2019-01-25T00:19:06.510Z,1020.28
2019-01-25T00:20:06.590Z,1020.31
2019-01-25T00:21:06.540Z,1020.35
2019-01-25T00:22:06.548Z,1020.34
2019-01-25T00:23:06.572Z,1020.36
2019-01-25T00:24:06.581Z,1020.36
2019-01-25T00:25:06.661Z,1020.44
2019-01-25T00:26:06.612Z,1020.43
2019-01-25T00:27:06.619Z,1020.42
2019-01-25T00:28:06.631Z,1020.42
2019-01-25T00:29:06.646Z,1020.49
2019-01-25T00:30:06.659Z,1020.49
2019-01-25T00:31:06.675Z,1020.52
2019-01-25T00:32:06.682Z,1020.50
2019-01-25T00:33:06.709Z,1020.52
2019-01-25T00:34:06.712Z,1020.54
2019-01-25T00:35:06.725Z,1020.57
2019-01-25T00:36:06.739Z,1020.59
2019-01-25T00:37:06.754Z,1020.57
2019-01-25T00:38:06.765Z,1020.62
2019-01-25T00:39:06.779Z,1020.62
2019-01-25T00:40:06.800Z,1020.65
2019-01-25T00:41:06.803Z,1020.66
2019-01-25T00:42:06.817Z,1020.69
2019-01-25T00:43:06.829Z,1020.73
2019-01-25T00:44:06.848Z,1020.74
2019-01-25T00:45:06.861Z,1020.71
2019-01-25T00:46:06.873Z,1020.74
2019-01-25T00:47:06.885Z,1020.75
2019-01-25T00:48:06.898Z,1020.79
2019-01-25T00:49:06.926Z,1020.79
2019-01-25T00:50:06.926Z,1020.79
2019-01-25T00:51:06.947Z,1020.87
2019-01-25T00:52:06.957Z,1020.90
2019-01-25T00:53:06.971Z,1020.88
2019-01-25T00:54:06.984Z,1020.93
2019-01-25T00:55:07.043Z,1020.96
2019-01-25T00:56:07.004Z,1020.98
2019-01-25T00:57:07.019Z,1021.00
2019-01-25T00:58:07.036Z,1021.02
2019-01-25T00:59:07.050Z,1021.04
2019-01-25T01:00:07.061Z,1021.04
2019-01-25T01:01:07.074Z,1021.07
2019-01-25T01:02:07.084Z,1021.08
2019-01-25T01:03:07.107Z,1021.11
2019-01-25T01:04:07.111Z,1021.14
2019-01-25T01:05:07.129Z,1021.16
2019-01-25T01:06:07.149Z,1021.15
2019-01-25T01:07:07.159Z,1021.16
2019-01-25T01:08:07.175Z,1021.17
2019-01-25T01:09:07.181Z,1021.22
2019-01-25T01:10:13.750Z,1021.24
2019-01-25T01:11:07.211Z,1021.27
2019-01-25T01:12:07.218Z,1021.33
2019-01-25T01:13:07.232Z,1021.35
2019-01-25T01:14:07.243Z,1021.33
2019-01-25T01:15:07.262Z,1021.36
2019-01-25T01:16:07.277Z,1021.39
2019-01-25T01:17:07.286Z,1021.38
2019-01-25T01:18:07.310Z,1021.40
2019-01-25T01:19:07.309Z,1021.41
2019-01-25T01:20:07.336Z,1021.40
2019-01-25T01:21:07.337Z,1021.45
2019-01-25T01:22:07.350Z,1021.50
2019-01-25T01:23:07.368Z,1021.53
2019-01-25T01:24:07.377Z,1021.46
2019-01-25T01:25:07.391Z,1021.52
2019-01-25T01:26:07.417Z,1021.52
2019-01-25T01:27:07.417Z,1021.55
2019-01-25T01:28:07.430Z,1021.53
2019-01-25T01:29:07.445Z,1021.56
2019-01-25T01:30:07.460Z,1021.61
2019-01-25T01:31:07.472Z,1021.62
2019-01-25T01:32:07.486Z,1021.67
2019-01-25T01:33:07.500Z,1021.66
2019-01-25T01:34:07.516Z,1021.70
2019-01-25T01:35:07.533Z,1021.70
2019-01-25T01:36:07.543Z,1021.70
2019-01-25T01:37:07.558Z,1021.68
2019-01-25T01:38:07.563Z,1021.73
2019-01-25T01:39:07.577Z,1021.75
2019-01-25T01:40:07.593Z,1021.77
2019-01-25T01:41:07.607Z,1021.76
2019-01-25T01:42:07.617Z,1021.79
2019-01-25T01:43:07.638Z,1021.79
2019-01-25T01:44:07.644Z,1021.77
2019-01-25T01:45:07.658Z,1021.83
2019-01-25T01:46:07.682Z,1021.81
2019-01-25T01:47:07.705Z,1021.86
2019-01-25T01:48:07.710Z,1021.83
2019-01-25T01:49:07.721Z,1021.88
2019-01-25T01:50:07.726Z,1021.87
2019-01-25T01:51:07.742Z,1021.91
2019-01-25T01:52:07.754Z,1021.92
2019-01-25T01:53:07.771Z,1021.94
2019-01-25T01:54:07.787Z,1021.97
2019-01-25T01:55:07.801Z,1021.96
2019-01-25T01:56:07.807Z,1021.95
2019-01-25T01:57:07.817Z,1021.97
2019-01-25T01:58:07.833Z,1021.95
2019-01-25T01:59:07.846Z,1022.00
2019-01-25T02:00:07.862Z,1021.99
2019-01-25T02:01:07.872Z,1022.00
2019-01-25T02:02:07.886Z,1022.03
2019-01-25T02:03:07.898Z,1022.05
2019-01-25T02:04:07.916Z,1022.06
2019-01-25T02:05:07.934Z,1022.05
2019-01-25T02:06:07.956Z,1022.08
2019-01-25T02:07:07.969Z,1022.04
2019-01-25T02:08:07.967Z,1022.10
2019-01-25T02:09:07.989Z,1022.09
2019-01-25T02:10:07.995Z,1022.11
2019-01-25T02:11:08.007Z,1022.16
2019-01-25T02:12:08.020Z,1022.17
2019-01-25T02:13:08.036Z,1022.21
2019-01-25T02:14:08.048Z,1022.23
2019-01-25T02:15:08.060Z,1022.23
2019-01-25T02:16:08.077Z,1022.23
2019-01-25T02:17:08.095Z,1022.22
2019-01-25T02:18:08.104Z,1022.22
2019-01-25T02:19:08.127Z,1022.23
2019-01-25T02:20:08.141Z,1022.24
2019-01-25T02:21:08.150Z,1022.25
2019-01-25T02:22:08.164Z,1022.25
2019-01-25T02:23:08.178Z,1022.28
2019-01-25T02:24:08.184Z,1022.27
2019-01-25T02:25:08.201Z,1022.30
2019-01-25T02:26:08.219Z,1022.31
2019-01-25T02:27:08.234Z,1022.34
2019-01-25T02:28:08.242Z,1022.34
2019-01-25T02:29:08.257Z,1022.36
2019-01-25T02:30:08.274Z,1022.37
2019-01-25T02:31:08.282Z,1022.40
2019-01-25T02:32:08.296Z,1022.38
2019-01-25T02:33:08.321Z,1022.43
2019-01-25T02:34:08.327Z,1022.43
2019-01-25T02:35:08.338Z,1022.40
2019-01-25T02:36:08.349Z,1022.44
2019-01-25T02:37:08.366Z,1022.44
2019-01-25T02:38:08.383Z,1022.47
2019-01-25T02:39:08.390Z,1022.44
2019-01-25T02:40:08.431Z,1022.43
2019-01-25T02:41:08.427Z,1022.45
2019-01-25T02:42:08.433Z,1022.47
2019-01-25T02:43:08.452Z,1022.47
2019-01-25T02:44:08.458Z,1022.47
2019-01-25T02:45:08.483Z,1022.48
2019-01-25T02:46:08.505Z,1022.51
2019-01-25T02:47:08.502Z,1022.51
2019-01-25T02:48:08.520Z,1022.50
2019-01-25T02:49:08.528Z,1022.51
2019-01-25T02:50:08.545Z,1022.50
2019-01-25T02:51:08.561Z,1022.47
2019-01-25T02:52:08.577Z,1022.50
2019-01-25T02:53:08.611Z,1022.49
2019-01-25T02:54:08.599Z,1022.53
2019-01-25T02:55:08.622Z,1022.53
2019-01-25T02:56:08.625Z,1022.51
2019-01-25T02:57:08.643Z,1022.49
2019-01-25T02:58:08.654Z,1022.49
2019-01-25T02:59:08.677Z,1022.49
2019-01-25T03:00:08.689Z,1022.46
2019-01-25T03:01:08.703Z,1022.48
2019-01-25T03:02:08.723Z,1022.45
2019-01-25T03:03:08.731Z,1022.44
2019-01-25T03:04:08.748Z,1022.41
2019-01-25T03:05:08.751Z,1022.40
2019-01-25T03:06:08.770Z,1022.39
2019-01-25T03:07:08.787Z,1022.36
2019-01-25T03:08:08.800Z,1022.39
2019-01-25T03:09:08.815Z,1022.34
2019-01-25T03:10:08.822Z,1022.37
2019-01-25T03:11:08.834Z,1022.33
2019-01-25T03:12:08.855Z,1022.29
2019-01-25T03:13:08.863Z,1022.32
2019-01-25T03:14:08.876Z,1022.27
2019-01-25T03:15:08.901Z,1022.31
2019-01-25T03:16:08.910Z,1022.36
2019-01-25T03:17:08.926Z,1022.34
2019-01-25T03:18:08.937Z,1022.37
2019-01-25T03:19:08.959Z,1022.36
2019-01-25T03:20:08.961Z,1022.38
2019-01-25T03:21:08.988Z,1022.44
2019-01-25T03:22:08.996Z,1022.40
2019-01-25T03:23:09.017Z,1022.39
2019-01-25T03:24:09.036Z,1022.41
2019-01-25T03:25:09.036Z,1022.37
2019-01-25T03:26:09.046Z,1022.39
2019-01-25T03:27:09.062Z,1022.39
2019-01-25T03:28:09.072Z,1022.39
2019-01-25T03:29:09.086Z,1022.39
2019-01-25T03:30:09.102Z,1022.33
2019-01-25T03:31:09.151Z,1022.35
2019-01-25T03:32:09.129Z,1022.33
2019-01-25T03:33:09.153Z,1022.30
2019-01-25T03:34:09.155Z,1022.31
2019-01-25T03:35:09.170Z,1022.29
2019-01-25T03:36:09.186Z,1022.26
2019-01-25T03:37:09.198Z,1022.27
2019-01-25T03:38:09.212Z,1022.30
2019-01-25T03:39:09.225Z,1022.27
2019-01-25T03:40:09.242Z,1022.27
2019-01-25T03:41:09.262Z,1022.27
2019-01-25T03:42:09.269Z,1022.30
2019-01-25T03:43:09.284Z,1022.24
2019-01-25T03:44:09.298Z,1022.27
2019-01-25T03:45:09.358Z,1022.30
2019-01-25T03:46:09.340Z,1022.28
2019-01-25T03:47:09.344Z,1022.30
2019-01-25T03:48:09.357Z,1022.31
2019-01-25T03:49:09.369Z,1022.31
2019-01-25T03:50:09.381Z,1022.30
2019-01-25T03:51:09.396Z,1022.31
2019-01-25T03:52:09.441Z,1022.29
2019-01-25T03:53:09.425Z,1022.28
2019-01-25T03:54:09.438Z,1022.26
2019-01-25T03:55:09.455Z,1022.27
2019-01-25T03:56:09.467Z,1022.28
2019-01-25T03:57:09.484Z,1022.28
2019-01-25T03:58:09.497Z,1022.24
2019-01-25T03:59:09.510Z,1022.26
2019-01-25T04:00:09.525Z,1022.24
2019-01-25T04:01:09.582Z,1022.20
2019-01-25T04:02:09.552Z,1022.22
2019-01-25T04:03:09.567Z,1022.22
2019-01-25T04:04:09.582Z,1022.18
2019-01-25T04:05:09.595Z,1022.17
2019-01-25T04:06:09.614Z,1022.15
2019-01-25T04:07:09.625Z,1022.15
2019-01-25T04:08:09.640Z,1022.15
2019-01-25T04:09:09.658Z,1022.17
2019-01-25T04:10:09.665Z,1022.14
2019-01-25T04:11:09.685Z,1022.17
2019-01-25T04:12:09.698Z,1022.17
2019-01-25T04:13:09.713Z,1022.13
2019-01-25T04:14:09.723Z,1022.16
2019-01-25T04:15:09.745Z,1022.14
2019-01-25T04:16:09.753Z,1022.15
2019-01-25T04:17:09.772Z,1022.18
2019-01-25T04:18:09.781Z,1022.15
2019-01-25T04:19:09.807Z,1022.13
2019-01-25T04:20:09.810Z,1022.11
2019-01-25T04:21:09.823Z,1022.16
2019-01-25T04:22:09.839Z,1022.14
2019-01-25T04:23:09.853Z,1022.13
2019-01-25T04:24:09.863Z,1022.17
2019-01-25T04:25:09.880Z,1022.14
2019-01-25T04:26:09.894Z,1022.17
2019-01-25T04:27:09.909Z,1022.17
2019-01-25T04:28:09.924Z,1022.15
2019-01-25T04:29:09.937Z,1022.15
2019-01-25T04:30:09.952Z,1022.17
2019-01-25T04:31:09.994Z,1022.14
2019-01-25T04:32:09.981Z,1022.12
2019-01-25T04:33:09.997Z,1022.14
2019-01-25T04:34:10.024Z,1022.11
2019-01-25T04:35:10.034Z,1022.09
2019-01-25T04:36:10.034Z,1022.09
2019-01-25T04:37:10.046Z,1022.09
2019-01-25T04:38:10.065Z,1022.09
2019-01-25T04:39:10.079Z,1022.09
2019-01-25T04:40:10.092Z,1022.06
2019-01-25T04:41:11.753Z,1022.04
2019-01-25T04:42:10.115Z,1022.04
2019-01-25T04:43:10.132Z,1022.02
2019-01-25T04:44:10.149Z,1022.00
2019-01-25T04:45:10.160Z,1022.02
2019-01-25T04:46:10.173Z,1022.01
2019-01-25T04:47:10.187Z,1021.99
2019-01-25T04:48:10.205Z,1022.00
2019-01-25T04:49:10.221Z,1021.99
2019-01-25T04:50:10.228Z,1021.99
2019-01-25T04:51:10.246Z,1021.93
2019-01-25T04:52:10.256Z,1021.95
2019-01-25T04:53:10.272Z,1021.94
2019-01-25T04:54:10.287Z,1021.89
2019-01-25T04:55:10.299Z,1021.91
2019-01-25T04:56:10.320Z,1021.89
2019-01-25T04:57:10.331Z,1021.89
2019-01-25T04:58:10.344Z,1021.88
2019-01-25T04:59:10.356Z,1021.86
2019-01-25T05:00:10.370Z,1021.81
2019-01-25T05:01:10.383Z,1021.81
2019-01-25T05:02:10.399Z,1021.75
2019-01-25T05:03:10.412Z,1021.76
2019-01-25T05:04:10.426Z,1021.74
2019-01-25T05:05:10.446Z,1021.72
2019-01-25T05:06:10.453Z,1021.72
2019-01-25T05:07:10.469Z,1021.70
2019-01-25T05:08:10.490Z,1021.67
2019-01-25T05:09:10.499Z,1021.67
2019-01-25T05:10:10.510Z,1021.67
2019-01-25T05:11:10.528Z,1021.65
2019-01-25T05:12:10.538Z,1021.65
2019-01-25T05:13:10.555Z,1021.62
2019-01-25T05:14:10.579Z,1021.64
2019-01-25T05:15:10.587Z,1021.59
2019-01-25T05:16:10.600Z,1021.61
2019-01-25T05:17:10.610Z,1021.59
2019-01-25T05:18:10.623Z,1021.58
2019-01-25T05:19:10.640Z,1021.55
2019-01-25T05:20:10.653Z,1021.56
2019-01-25T05:21:10.666Z,1021.54
2019-01-25T05:22:10.682Z,1021.55
2019-01-25T05:23:10.697Z,1021.51
2019-01-25T05:24:10.711Z,1021.48
2019-01-25T05:25:10.722Z,1021.46
2019-01-25T05:26:10.742Z,1021.45
2019-01-25T05:27:10.750Z,1021.48
2019-01-25T05:28:10.766Z,1021.42
2019-01-25T05:29:10.779Z,1021.41
2019-01-25T05:30:10.791Z,1021.36
2019-01-25T05:31:10.816Z,1021.37
2019-01-25T05:32:10.824Z,1021.36
2019-01-25T05:33:10.836Z,1021.35
2019-01-25T05:34:10.850Z,1021.36
2019-01-25T05:35:10.863Z,1021.30
2019-01-25T05:36:10.876Z,1021.31
2019-01-25T05:37:10.898Z,1021.31
2019-01-25T05:38:10.905Z,1021.30
2019-01-25T05:39:10.923Z,1021.31
2019-01-25T05:40:10.934Z,1021.25
2019-01-25T05:41:10.952Z,1021.24
2019-01-25T05:42:10.964Z,1021.22
2019-01-25T05:43:10.978Z,1021.23
2019-01-25T05:44:10.992Z,1021.21
2019-01-25T05:45:11.007Z,1021.22
2019-01-25T05:46:11.030Z,1021.16
2019-01-25T05:47:11.033Z,1021.17
2019-01-25T05:48:11.053Z,1021.13
2019-01-25T05:49:11.061Z,1021.14
2019-01-25T05:50:11.075Z,1021.10
2019-01-25T05:51:11.088Z,1021.10
2019-01-25T05:52:11.102Z,1021.11
2019-01-25T05:53:11.118Z,1021.08
2019-01-25T05:54:11.129Z,1021.06
2019-01-25T05:55:11.151Z,1021.03
2019-01-25T05:56:11.159Z,1021.02
2019-01-25T05:57:11.174Z,1021.03
2019-01-25T05:58:11.192Z,1021.00
2019-01-25T05:59:11.205Z,1020.97
2019-01-25T06:00:11.221Z,1020.97
2019-01-25T06:01:11.239Z,1020.94
2019-01-25T06:02:11.245Z,1020.95
2019-01-25T06:03:11.258Z,1020.93
2019-01-25T06:04:11.274Z,1020.89
2019-01-25T06:05:11.289Z,1020.87
2019-01-25T06:06:11.301Z,1020.85
2019-01-25T06:07:11.318Z,1020.83
2019-01-25T06:08:11.333Z,1020.81
2019-01-25T06:09:11.345Z,1020.80
2019-01-25T06:10:11.360Z,1020.77
2019-01-25T06:11:11.375Z,1020.74
2019-01-25T06:12:11.388Z,1020.77
2019-01-25T06:13:11.408Z,1020.76
2019-01-25T06:14:11.416Z,1020.74
2019-01-25T06:15:11.432Z,1020.75
2019-01-25T06:16:11.449Z,1020.74
2019-01-25T06:17:11.461Z,1020.72
2019-01-25T06:18:11.475Z,1020.71
2019-01-25T06:19:11.495Z,1020.69
2019-01-25T06:20:11.503Z,1020.64
2019-01-25T06:21:11.520Z,1020.68
2019-01-25T06:22:11.531Z,1020.67
2019-01-25T06:23:11.544Z,1020.67
2019-01-25T06:24:11.563Z,1020.68
2019-01-25T06:25:11.583Z,1020.63
2019-01-25T06:26:11.589Z,1020.62
2019-01-25T06:27:11.610Z,1020.62
2019-01-25T06:28:11.618Z,1020.63
2019-01-25T06:29:11.634Z,1020.59
2019-01-25T06:30:11.647Z,1020.58
2019-01-25T06:31:11.664Z,1020.56
2019-01-25T06:32:11.676Z,1020.55
2019-01-25T06:33:11.691Z,1020.55
2019-01-25T06:34:11.708Z,1020.51
2019-01-25T06:35:11.719Z,1020.54
2019-01-25T06:36:11.735Z,1020.49
2019-01-25T06:37:11.750Z,1020.51
2019-01-25T06:38:11.767Z,1020.50
2019-01-25T06:39:11.776Z,1020.51
2019-01-25T06:40:11.797Z,1020.46
2019-01-25T06:41:11.807Z,1020.52
2019-01-25T06:42:11.821Z,1020.47
2019-01-25T06:43:11.835Z,1020.49
2019-01-25T06:44:11.852Z,1020.47
2019-01-25T06:45:11.865Z,1020.44
2019-01-25T06:46:11.875Z,1020.42
2019-01-25T06:47:11.899Z,1020.42
2019-01-25T06:48:11.907Z,1020.39
2019-01-25T06:49:11.919Z,1020.37
2019-01-25T06:50:11.934Z,1020.38
2019-01-25T06:51:11.949Z,1020.37
2019-01-25T06:52:11.963Z,1020.33
2019-01-25T06:53:11.984Z,1020.37
2019-01-25T06:54:11.993Z,1020.40
2019-01-25T06:55:12.012Z,1020.39
2019-01-25T06:56:12.023Z,1020.37
2019-01-25T06:57:12.036Z,1020.38
2019-01-25T06:58:12.066Z,1020.36
2019-01-25T06:59:12.073Z,1020.34
2019-01-25T07:00:12.082Z,1020.30
2019-01-25T07:01:12.093Z,1020.27
2019-01-25T07:02:12.106Z,1020.27
2019-01-25T07:03:12.155Z,1020.28
2019-01-25T07:04:12.136Z,1020.28
2019-01-25T07:05:12.151Z,1020.26
2019-01-25T07:06:12.168Z,1020.27
2019-01-25T07:07:12.182Z,1020.28
2019-01-25T07:08:12.200Z,1020.26
2019-01-25T07:09:12.211Z,1020.22
2019-01-25T07:10:12.223Z,1020.21
2019-01-25T07:11:12.238Z,1020.23
2019-01-25T07:12:12.252Z,1020.26
2019-01-25T07:13:12.271Z,1020.21
2019-01-25T07:14:12.281Z,1020.20
2019-01-25T07:15:12.298Z,1020.20
2019-01-25T07:16:12.311Z,1020.20
2019-01-25T07:17:12.324Z,1020.18
2019-01-25T07:18:12.338Z,1020.20
2019-01-25T07:19:12.353Z,1020.21
2019-01-25T07:20:12.370Z,1020.22
2019-01-25T07:21:12.387Z,1020.19
2019-01-25T07:22:12.397Z,1020.18
2019-01-25T07:23:12.410Z,1020.11
2019-01-25T07:24:12.425Z,1020.13
2019-01-25T07:25:12.449Z,1020.11
2019-01-25T07:26:12.457Z,1020.13
2019-01-25T07:27:12.470Z,1020.11
2019-01-25T07:28:12.522Z,1020.10
2019-01-25T07:29:12.500Z,1020.10
2019-01-25T07:30:12.515Z,1020.09
2019-01-25T07:31:12.856Z,1020.09
2019-01-25T07:32:12.561Z,1020.08
2019-01-25T07:33:12.574Z,1020.10
2019-01-25T07:34:12.580Z,1020.11
2019-01-25T07:35:12.587Z,1020.07
2019-01-25T07:36:12.633Z,1020.06
2019-01-25T07:37:12.644Z,1020.07
2019-01-25T07:38:12.649Z,1020.04
2019-01-25T07:39:12.648Z,1020.04
2019-01-25T07:40:12.658Z,1020.04
2019-01-25T07:41:12.696Z,1020.05
2019-01-25T07:42:12.687Z,1020.03
2019-01-25T07:43:12.706Z,1020.06
2019-01-25T07:44:12.775Z,1020.02
2019-01-25T07:45:12.738Z,1020.04
2019-01-25T07:46:12.745Z,1020.06
2019-01-25T07:47:12.761Z,1020.08
2019-01-25T07:48:12.781Z,1020.08
2019-01-25T07:49:12.814Z,1020.07
2019-01-25T07:50:12.861Z,1020.05
2019-01-25T07:51:12.856Z,1020.10
2019-01-25T07:52:12.835Z,1020.09
2019-01-25T07:53:12.868Z,1020.09
2019-01-25T07:54:12.893Z,1020.15
2019-01-25T07:55:12.877Z,1020.13
2019-01-25T07:56:12.896Z,1020.12
2019-01-25T07:57:12.906Z,1020.11
2019-01-25T07:58:12.921Z,1020.09
2019-01-25T07:59:12.947Z,1020.12
2019-01-25T08:00:13.027Z,1020.12
2019-01-25T08:01:12.967Z,1020.10
2019-01-25T08:02:12.986Z,1020.11
2019-01-25T08:03:12.997Z,1020.12
2019-01-25T08:04:13.012Z,1020.10
2019-01-25T08:05:13.040Z,1020.12
2019-01-25T08:06:13.051Z,1020.14
2019-01-25T08:07:13.057Z,1020.16
2019-01-25T08:08:13.073Z,1020.13
2019-01-25T08:09:13.081Z,1020.16
2019-01-25T08:10:13.096Z,1020.14
2019-01-25T08:11:13.114Z,1020.17
2019-01-25T08:12:13.155Z,1020.15
2019-01-25T08:13:13.141Z,1020.21
2019-01-25T08:14:13.235Z,1020.14
2019-01-25T08:15:13.178Z,1020.14
2019-01-25T08:16:13.200Z,1020.14
2019-01-25T08:17:13.245Z,1020.13
2019-01-25T08:18:13.213Z,1020.13
2019-01-25T08:19:13.256Z,1020.17
2019-01-25T08:20:13.247Z,1020.21
2019-01-25T08:21:13.282Z,1020.24
2019-01-25T08:22:13.280Z,1020.26
2019-01-25T08:23:13.285Z,1020.26
2019-01-25T08:24:13.309Z,1020.24
2019-01-25T08:25:13.341Z,1020.28
2019-01-25T08:26:13.335Z,1020.28
2019-01-25T08:27:13.345Z,1020.26
2019-01-25T08:28:13.357Z,1020.28
2019-01-25T08:29:13.394Z,1020.28
2019-01-25T08:30:13.422Z,1020.30
2019-01-25T08:31:13.401Z,1020.30
2019-01-25T08:32:13.436Z,1020.36
2019-01-25T08:33:13.429Z,1020.34
2019-01-25T08:34:13.485Z,1020.35
2019-01-25T08:35:13.459Z,1020.37
2019-01-25T08:36:13.495Z,1020.34
2019-01-25T08:37:13.487Z,1020.38
2019-01-25T08:38:13.502Z,1020.32
2019-01-25T08:39:13.514Z,1020.33
2019-01-25T08:40:13.554Z,1020.33
2019-01-25T08:41:13.562Z,1020.35
2019-01-25T08:42:15.567Z,1020.38
2019-01-25T08:43:13.576Z,1020.37
2019-01-25T08:44:13.588Z,1020.37
2019-01-25T08:45:13.616Z,1020.39
2019-01-25T08:46:13.618Z,1020.38
2019-01-25T08:47:13.689Z,1020.41
2019-01-25T08:48:13.644Z,1020.42
2019-01-25T08:49:13.698Z,1020.40
2019-01-25T08:50:13.725Z,1020.41
2019-01-25T08:51:13.688Z,1020.42
2019-01-25T08:52:13.710Z,1020.39
2019-01-25T08:53:13.737Z,1020.42
2019-01-25T08:54:14.287Z,1020.44
2019-01-25T08:55:13.849Z,1020.45
2019-01-25T08:56:13.769Z,1020.45
2019-01-25T08:57:13.778Z,1020.44
2019-01-25T08:58:13.800Z,1020.45
2019-01-25T08:59:13.808Z,1020.44
2019-01-25T09:00:13.822Z,1020.50
2019-01-25T09:01:13.841Z,1020.44
2019-01-25T09:02:13.846Z,1020.46
2019-01-25T09:03:13.863Z,1020.50
2019-01-25T09:04:13.879Z,1020.48
2019-01-25T09:05:13.893Z,1020.52
2019-01-25T09:06:13.908Z,1020.50
2019-01-25T09:07:13.920Z,1020.53
2019-01-25T09:08:13.933Z,1020.54
2019-01-25T09:09:13.956Z,1020.55
2019-01-25T09:10:13.964Z,1020.58
2019-01-25T09:11:13.978Z,1020.55
2019-01-25T09:12:13.997Z,1020.56
2019-01-25T09:13:14.008Z,1020.59
2019-01-25T09:14:14.021Z,1020.59
2019-01-25T09:15:14.034Z,1020.58
2019-01-25T09:16:14.051Z,1020.58
2019-01-25T09:17:14.070Z,1020.57
2019-01-25T09:18:14.080Z,1020.58
2019-01-25T09:19:14.096Z,1020.59
2019-01-25T09:20:14.539Z,1020.57
2019-01-25T09:21:14.123Z,1020.58
2019-01-25T09:22:14.135Z,1020.54
2019-01-25T09:23:14.155Z,1020.60
2019-01-25T09:24:14.165Z,1020.61
2019-01-25T09:25:14.183Z,1020.59
2019-01-25T09:26:14.201Z,1020.60
2019-01-25T09:27:14.208Z,1020.64
2019-01-25T09:28:14.221Z,1020.57
2019-01-25T09:29:14.244Z,1020.59
2019-01-25T09:30:14.252Z,1020.64
2019-01-25T09:31:14.268Z,1020.62
2019-01-25T09:32:14.281Z,1020.68
2019-01-25T09:33:14.294Z,1020.65
2019-01-25T09:34:14.310Z,1020.67
2019-01-25T09:35:14.326Z,1020.68
2019-01-25T09:36:14.337Z,1020.67
2019-01-25T09:37:14.352Z,1020.70
2019-01-25T09:38:14.373Z,1020.67
2019-01-25T09:39:14.381Z,1020.71
2019-01-25T09:40:14.397Z,1020.69
2019-01-25T09:41:14.410Z,1020.71
2019-01-25T09:42:14.426Z,1020.74
2019-01-25T09:43:14.461Z,1020.75
2019-01-25T09:44:14.471Z,1020.78
2019-01-25T09:45:14.468Z,1020.75
2019-01-25T09:46:14.483Z,1020.78
2019-01-25T09:47:14.497Z,1020.74
2019-01-25T09:48:14.513Z,1020.79
2019-01-25T09:49:14.527Z,1020.82
2019-01-25T09:50:14.541Z,1020.80
2019-01-25T09:51:14.554Z,1020.80
2019-01-25T09:52:14.572Z,1020.84
2019-01-25T09:53:14.581Z,1020.86
2019-01-25T09:54:14.596Z,1020.84
2019-01-25T09:55:14.612Z,1020.88
2019-01-25T09:56:14.629Z,1020.86
2019-01-25T09:57:14.649Z,1020.91
2019-01-25T09:58:14.653Z,1020.89
2019-01-25T09:59:14.668Z,1020.91
2019-01-25T10:00:14.695Z,1020.87
2019-01-25T10:01:14.698Z,1020.92
2019-01-25T10:02:14.709Z,1020.91
2019-01-25T10:03:14.729Z,1020.93
2019-01-25T10:04:14.742Z,1020.95
2019-01-25T10:05:14.754Z,1020.99
2019-01-25T10:06:14.767Z,1021.01
2019-01-25T10:07:14.783Z,1021.06
2019-01-25T10:08:14.797Z,1021.06
2019-01-25T10:09:14.811Z,1021.07
2019-01-25T10:10:14.829Z,1021.07
2019-01-25T10:11:14.843Z,1021.11
2019-01-25T10:12:14.856Z,1021.14
2019-01-25T10:13:14.871Z,1021.12
2019-01-25T10:14:14.885Z,1021.12
2019-01-25T10:15:14.903Z,1021.17
2019-01-25T10:16:14.913Z,1021.13
2019-01-25T10:17:14.925Z,1021.14
2019-01-25T10:18:14.939Z,1021.16
2019-01-25T10:19:14.955Z,1021.17
2019-01-25T10:20:14.968Z,1021.20
2019-01-25T10:21:14.995Z,1021.20
2019-01-25T10:22:15.045Z,1021.22
2019-01-25T10:23:15.011Z,1021.19
2019-01-25T10:24:15.025Z,1021.22
2019-01-25T10:25:15.061Z,1021.19
2019-01-25T10:26:15.054Z,1021.25
2019-01-25T10:27:15.072Z,1021.23
2019-01-25T10:28:15.085Z,1021.24
2019-01-25T10:29:15.097Z,1021.25
2019-01-25T10:30:15.115Z,1021.25
2019-01-25T10:31:15.124Z,1021.27
2019-01-25T10:32:15.140Z,1021.30
2019-01-25T10:33:15.153Z,1021.32
2019-01-25T10:34:15.176Z,1021.32
2019-01-25T10:35:15.182Z,1021.27
2019-01-25T10:36:15.199Z,1021.27
2019-01-25T10:37:15.212Z,1021.32
2019-01-25T10:38:15.224Z,1021.34
2019-01-25T10:39:15.238Z,1021.37
2019-01-25T10:40:15.257Z,1021.34
2019-01-25T10:41:15.273Z,1021.36
2019-01-25T10:42:15.281Z,1021.35
2019-01-25T10:43:15.297Z,1021.37
2019-01-25T10:44:15.311Z,1021.35
2019-01-25T10:45:15.326Z,1021.39
2019-01-25T10:46:15.338Z,1021.40
2019-01-25T10:47:15.354Z,1021.36
2019-01-25T10:48:15.372Z,1021.37
2019-01-25T10:49:15.382Z,1021.35
2019-01-25T10:50:15.401Z,1021.35
2019-01-25T10:51:15.425Z,1021.40
2019-01-25T10:52:15.422Z,1021.37
2019-01-25T10:53:15.442Z,1021.41
2019-01-25T10:54:15.451Z,1021.42
2019-01-25T10:55:15.466Z,1021.45
2019-01-25T10:56:15.482Z,1021.39
2019-01-25T10:57:15.495Z,1021.37
2019-01-25T10:58:15.509Z,1021.40
2019-01-25T10:59:15.530Z,1021.43
2019-01-25T11:00:15.555Z,1021.45
2019-01-25T11:01:15.562Z,1021.43
2019-01-25T11:02:15.565Z,1021.43
2019-01-25T11:03:15.583Z,1021.42
2019-01-25T11:04:15.592Z,1021.47
2019-01-25T11:05:15.610Z,1021.49
2019-01-25T11:06:15.622Z,1021.47
2019-01-25T11:07:15.636Z,1021.48
2019-01-25T11:08:15.650Z,1021.48
2019-01-25T11:09:15.663Z,1021.52
2019-01-25T11:10:15.678Z,1021.53
2019-01-25T11:11:15.689Z,1021.53
2019-01-25T11:12:15.705Z,1021.57
2019-01-25T11:13:15.724Z,1021.61
2019-01-25T11:14:15.731Z,1021.62
2019-01-25T11:15:15.743Z,1021.64
2019-01-25T11:16:15.760Z,1021.63
2019-01-25T11:17:15.778Z,1021.66
2019-01-25T11:18:15.791Z,1021.64
2019-01-25T11:19:15.806Z,1021.65
2019-01-25T11:20:15.816Z,1021.68
2019-01-25T11:21:15.830Z,1021.71
2019-01-25T11:22:15.843Z,1021.68
2019-01-25T11:23:15.857Z,1021.72
2019-01-25T11:24:15.871Z,1021.73
2019-01-25T11:25:15.885Z,1021.73
2019-01-25T11:26:15.902Z,1021.73
2019-01-25T11:27:15.914Z,1021.77
2019-01-25T11:28:15.928Z,1021.77
2019-01-25T11:29:15.951Z,1021.79
2019-01-25T11:30:15.957Z,1021.81
2019-01-25T11:31:15.970Z,1021.83
2019-01-25T11:32:15.982Z,1021.84
2019-01-25T11:33:16.068Z,1021.84
2019-01-25T11:34:16.010Z,1021.87
2019-01-25T11:35:16.030Z,1021.86
2019-01-25T11:36:16.046Z,1021.86
2019-01-25T11:37:16.053Z,1021.89
2019-01-25T11:38:16.069Z,1021.87
2019-01-25T11:39:16.082Z,1021.89
2019-01-25T11:40:16.097Z,1021.88
2019-01-25T11:41:16.114Z,1021.90
2019-01-25T11:42:16.123Z,1021.91
2019-01-25T11:43:16.136Z,1021.87
2019-01-25T11:44:16.153Z,1021.87
2019-01-25T11:45:16.163Z,1021.87
2019-01-25T11:46:16.176Z,1021.91
2019-01-25T11:47:16.191Z,1021.89
2019-01-25T11:48:16.211Z,1021.92
2019-01-25T11:49:16.223Z,1021.89
2019-01-25T11:50:16.235Z,1021.96
2019-01-25T11:51:16.248Z,1021.96
2019-01-25T11:52:16.261Z,1021.95
2019-01-25T11:53:16.282Z,1021.95
2019-01-25T11:54:16.291Z,1021.98
2019-01-25T11:55:16.304Z,1022.00
2019-01-25T11:56:16.317Z,1022.02
2019-01-25T11:57:16.332Z,1022.04
2019-01-25T11:58:16.342Z,1022.05
2019-01-25T11:59:16.360Z,1022.06
2019-01-25T12:00:16.372Z,1022.09
2019-01-25T12:01:16.386Z,1022.12
2019-01-25T12:02:20.860Z,1022.09
2019-01-25T12:03:16.415Z,1022.10
2019-01-25T12:04:16.427Z,1022.11
2019-01-25T12:05:16.440Z,1022.10